createdAt,value
2017-12-28T00:04:49.982Z,4.1
2017-12-28T00:15:43.569Z,4.1
2017-12-28T00:25:57.189Z,4.1
2017-12-28T00:36:11.569Z,4.0
2017-12-28T00:46:24.760Z,4.0
2017-12-28T00:56:38.295Z,3.9
2017-12-28T01:06:52.369Z,3.8
2017-12-28T01:17:05.736Z,3.7
2017-12-28T01:27:19.787Z,3.6
2017-12-28T01:37:33.042Z,3.6
2017-12-28T01:47:46.208Z,3.5
2017-12-28T01:57:59.671Z,3.5
2017-12-28T02:08:13.647Z,3.4
2017-12-28T02:18:27.084Z,3.4
2017-12-28T02:28:40.418Z,3.4
2017-12-28T02:38:53.480Z,3.3
2017-12-28T02:49:07.128Z,3.1
2017-12-28T02:59:20.934Z,3.0
2017-12-28T03:10:29.936Z,2.8
2017-12-28T03:20:43.865Z,2.7
2017-12-28T03:30:56.872Z,2.6
2017-12-28T03:51:26.845Z,2.4
2017-12-28T04:01:39.910Z,2.3
2017-12-28T04:11:53.186Z,2.2
2017-12-28T04:22:28.219Z,2.2
2017-12-28T04:32:44.010Z,2.1
2017-12-28T04:42:57.287Z,2.1
2017-12-28T04:53:10.462Z,2.0
2017-12-28T05:03:25.220Z,2.0
2017-12-28T05:13:39.123Z,1.9
2017-12-28T05:24:48.580Z,1.9
2017-12-28T05:35:02.518Z,1.9
2017-12-28T05:45:15.889Z,1.9
2017-12-28T05:55:29.386Z,1.9
2017-12-28T06:05:43.425Z,1.9
2017-12-28T06:15:56.680Z,1.8
2017-12-28T06:26:10.333Z,1.8
2017-12-28T06:37:00.624Z,1.6
2017-12-28T06:47:15.052Z,1.6
2017-12-28T06:58:01.934Z,1.6
2017-12-28T07:08:33.539Z,1.5
2017-12-28T07:19:18.922Z,1.3
2017-12-28T07:30:32.828Z,1.3
2017-12-28T07:40:46.629Z,1.3
2017-12-28T07:50:59.876Z,1.2
2017-12-28T08:01:14.646Z,1.1
2017-12-28T08:12:03.170Z,1.0
2017-12-28T08:22:16.326Z,1.0
2017-12-28T08:32:30.190Z,1.0
2017-12-28T08:42:42.355Z,1.0
2017-12-28T08:52:56.181Z,1.1
2017-12-28T09:03:13.465Z,1.1
2017-12-28T09:13:26.916Z,1.2
2017-12-28T09:23:41.211Z,1.5
2017-12-28T09:33:55.231Z,1.7
2017-12-28T09:44:30.373Z,2.2
2017-12-28T09:55:15.076Z,2.4
2017-12-28T10:06:34.419Z,2.4
2017-12-28T10:17:09.387Z,2.5
2017-12-28T10:27:23.248Z,2.6
2017-12-28T10:37:36.560Z,2.7
2017-12-28T10:47:50.622Z,2.7
2017-12-28T10:58:04.902Z,2.8
2017-12-28T11:08:18.516Z,2.8
2017-12-28T11:18:32.817Z,2.9
2017-12-28T11:29:16.658Z,3.0
2017-12-28T11:39:30.278Z,3.1
2017-12-28T11:50:15.902Z,3.6
2017-12-28T12:00:30.495Z,3.6
2017-12-28T12:11:19.005Z,4.4
2017-12-28T12:21:33.426Z,4.4
2017-12-28T12:31:46.756Z,4.8
2017-12-28T12:42:18.430Z,5.1
2017-12-28T12:52:32.504Z,5.4
2017-12-28T13:02:46.586Z,5.9
2017-12-28T13:13:35.937Z,6.2
2017-12-28T13:24:21.924Z,6.1
2017-12-28T13:34:36.602Z,6.1
2017-12-28T13:45:01.876Z,6.0
2017-12-28T13:55:21.484Z,5.8
2017-12-28T14:05:40.849Z,5.7
2017-12-28T14:15:55.233Z,5.6
2017-12-28T14:26:40.946Z,5.4
2017-12-28T14:47:25.415Z,5.2
2017-12-28T15:08:54.515Z,4.8
2017-12-28T15:19:51.103Z,4.7
2017-12-28T15:30:35.772Z,4.6
2017-12-28T15:41:24.043Z,4.4
2017-12-28T15:52:09.433Z,4.3
2017-12-28T16:02:23.028Z,4.3
2017-12-28T16:13:05.970Z,4.2
2017-12-28T16:23:35.867Z,4.1
2017-12-28T16:34:23.126Z,4.0
2017-12-28T16:45:08.710Z,4.0
2017-12-28T16:55:32.533Z,4.0
2017-12-28T17:05:46.667Z,3.9
2017-12-28T17:16:00.150Z,3.8
2017-12-28T17:26:34.922Z,3.8
2017-12-28T17:36:49.512Z,3.7
2017-12-28T17:47:37.054Z,3.7
2017-12-28T17:57:51.846Z,3.7
2017-12-28T18:08:06.090Z,3.7
2017-12-28T18:18:20.016Z,3.6
2017-12-28T18:28:33.565Z,3.6
2017-12-28T18:39:48.116Z,3.5
2017-12-28T18:50:03.291Z,3.5
2017-12-28T19:00:33.708Z,3.5
2017-12-28T19:11:26.993Z,3.3
2017-12-28T19:21:49.835Z,3.3
2017-12-28T19:32:22.846Z,3.3
2017-12-28T19:43:08.426Z,3.2
2017-12-28T19:54:38.588Z,3.2
2017-12-28T20:04:52.386Z,3.2
2017-12-28T20:28:56.343Z,3.2
2017-12-28T20:40:18.070Z,3.1
2017-12-28T20:51:02.811Z,3.0
2017-12-28T21:01:17.380Z,3.0
2017-12-28T21:12:04.389Z,2.7
2017-12-28T21:22:19.721Z,2.8
2017-12-28T21:32:50.549Z,2.6
2017-12-28T21:43:01.836Z,2.5
2017-12-28T21:53:16.800Z,2.4
2017-12-28T22:04:52.691Z,2.3
2017-12-28T22:15:09.201Z,2.2
2017-12-28T22:25:24.041Z,2.3
2017-12-28T22:36:09.668Z,2.3
2017-12-28T22:46:23.629Z,2.3
2017-12-28T22:56:36.989Z,2.3
2017-12-28T23:07:58.116Z,2.4
2017-12-28T23:18:11.697Z,2.4
2017-12-28T23:28:28.094Z,2.4
2017-12-28T23:39:03.420Z,2.5
2017-12-28T23:49:28.686Z,2.5
2017-12-28T23:59:42.492Z,2.5
